No particular awareness of the weather is required.    There are no Weather-warnings


Meteo18 Weather Cam more information Meteo18 Weather Cam


Thunder radar more information blitzortung!


Rain radar more information rain snow radar


Visit our other weather sites:

Template documentation
and downloads

And another site



Weather Underground History page Text

Daily Summary for August 11, 2017 Units:  Both    English   Metric
« Previous Day
Next Day »
Daily Weekly Monthly Yearly Custom
  High: Low: Average:
Temperature: 68.9 °F /  20.5 °C 50.2 °F /  10.1 °C 58.3 °F /  14.6 °C
Dew Point: 55.6 °F /  13.1 °C 49.3 °F /  9.6 °C 52.9 °F /  11.6 °C
Humidity: 97 % 58 % 83 %
Wind Speed: 9 mph /  14.5 km/h - 1.7 mph /  2.8 km/h
Wind Gust: 13 mph /  20.9 km/h - -
Wind:- - WSW
Pressure: 30.2 in /  1022.9 hPa 30.1 in /  1020.5 hPa -
Precipitation: 0.01 in /  0.3 mm    
Historical Graphs
 
 
Tabular Data for August 11, 2017
Time Temperature Dew Point Pressure Wind Wind Speed Wind Gust Humidity Rainfall Rate (Hourly)
00:02 54.3 °F /  12.4 °C 52.3 °F /  11.3 °C 30.2 in /  1021.6 hPa Calm   1 mph /  1.6 km/h 93 % 0 in /  0.0 mm
00:12 53.6 °F /  12.0 °C 51.6 °F /  10.9 °C 30.2 in /  1021.6 hPa Calm   1 mph /  1.6 km/h 93 % 0 in /  0.0 mm
00:17 53.4 °F /  11.9 °C 51.8 °F /  11.0 °C 30.2 in /  1021.6 hPa Calm   1 mph /  1.6 km/h 94 % 0 in /  0.0 mm
00:22 53.4 °F /  11.9 °C 51.8 °F /  11.0 °C 30.2 in /  1021.6 hPa Calm   1 mph /  1.6 km/h 94 % 0 in /  0.0 mm
00:27 53.2 °F /  11.8 °C 51.6 °F /  10.9 °C 30.2 in /  1021.6 hPa Calm   1 mph /  1.6 km/h 94 % 0 in /  0.0 mm
00:32 53.1 °F /  11.7 °C 51.4 °F /  10.8 °C 30.2 in /  1021.6 hPa Calm   1 mph /  1.6 km/h 94 % 0 in /  0.0 mm
00:42 52.9 °F /  11.6 °C 51.3 °F /  10.7 °C 30.2 in /  1021.6 hPa Calm   1 mph /  1.6 km/h 94 % 0 in /  0.0 mm
00:47 52.9 °F /  11.6 °C 51.4 °F /  10.8 °C 30.2 in /  1021.6 hPa Calm   1 mph /  1.6 km/h 95 % 0 in /  0.0 mm
00:52 52.9 °F /  11.6 °C 51.4 °F /  10.8 °C 30.2 in /  1021.6 hPa Calm     95 % 0 in /  0.0 mm
00:57 52.5 °F /  11.4 °C 51.1 °F /  10.6 °C 30.2 in /  1021.6 hPa Calm     95 % 0 in /  0.0 mm
01:02 52.3 °F /  11.3 °C 50.7 °F /  10.4 °C 30.2 in /  1021.6 hPa Calm     94 % 0 in /  0.0 mm
01:12 52.2 °F /  11.2 °C 50.7 °F /  10.4 °C 30.2 in /  1021.2 hPa Calm     95 % 0 in /  0.0 mm
01:17 52.2 °F /  11.2 °C 50.7 °F /  10.4 °C 30.2 in /  1021.6 hPa Calm     95 % 0 in /  0.0 mm
01:22 52.2 °F /  11.2 °C 50.7 °F /  10.4 °C 30.2 in /  1021.2 hPa Calm     95 % 0 in /  0.0 mm
01:27 52.2 °F /  11.2 °C 50.7 °F /  10.4 °C 30.2 in /  1021.2 hPa Calm     95 % 0 in /  0.0 mm
01:32 52.3 °F /  11.3 °C 51.3 °F /  10.7 °C 30.2 in /  1021.2 hPa Calm   2 mph /  3.2 km/h 96 % 0 in /  0.0 mm
01:37 52.3 °F /  11.3 °C 51.3 °F /  10.7 °C 30.2 in /  1021.2 hPa WNW 1 mph /  1.6 km/h 2 mph /  3.2 km/h 96 % 0 in /  0.0 mm
01:42 52.5 °F /  11.4 °C 51.4 °F /  10.8 °C 30.2 in /  1021.2 hPa Calm   2 mph /  3.2 km/h 96 % 0 in /  0.0 mm
01:52 52.5 °F /  11.4 °C 51.1 °F /  10.6 °C 30.2 in /  1021.2 hPa West 1 mph /  1.6 km/h 2 mph /  3.2 km/h 95 % 0 in /  0.0 mm
01:57 52.3 °F /  11.3 °C 50.9 °F /  10.5 °C 30.2 in /  1021.2 hPa Calm   2 mph /  3.2 km/h 95 % 0 in /  0.0 mm
02:02 52.3 °F /  11.3 °C 50.9 °F /  10.5 °C 30.2 in /  1021.2 hPa Calm   2 mph /  3.2 km/h 95 % 0 in /  0.0 mm
02:07 52.3 °F /  11.3 °C 51.3 °F /  10.7 °C 30.2 in /  1021.2 hPa NNE 1 mph /  1.6 km/h 1 mph /  1.6 km/h 96 % 0 in /  0.0 mm
02:12 52.3 °F /  11.3 °C 51.3 °F /  10.7 °C 30.2 in /  1021.2 hPa Calm   1 mph /  1.6 km/h 96 % 0 in /  0.0 mm
02:17 52 °F /  11.1 °C 50.5 °F /  10.3 °C 30.2 in /  1021.2 hPa Calm   1 mph /  1.6 km/h 95 % 0 in /  0.0 mm
02:22 52 °F /  11.1 °C 50.9 °F /  10.5 °C 30.2 in /  1021.2 hPa Calm   1 mph /  1.6 km/h 96 % 0 in /  0.0 mm
02:27 52 °F /  11.1 °C 50.9 °F /  10.5 °C 30.2 in /  1021.2 hPa Calm   1 mph /  1.6 km/h 96 % 0 in /  0.0 mm
02:32 52 °F /  11.1 °C 50.9 °F /  10.5 °C 30.2 in /  1021.2 hPa Calm   1 mph /  1.6 km/h 96 % 0 in /  0.0 mm
02:37 51.6 °F /  10.9 °C 50.2 °F /  10.1 °C 30.2 in /  1021.2 hPa Calm     95 % 0 in /  0.0 mm
02:42 51.4 °F /  10.8 °C 50.4 °F /  10.2 °C 30.2 in /  1021.6 hPa Calm     96 % 0 in /  0.0 mm
02:47 51.1 °F /  10.6 °C 49.6 °F /  9.8 °C 30.2 in /  1021.2 hPa Calm   1 mph /  1.6 km/h 95 % 0 in /  0.0 mm
02:52 51.1 °F /  10.6 °C 50 °F /  10.0 °C 30.2 in /  1021.2 hPa Calm   1 mph /  1.6 km/h 96 % 0 in /  0.0 mm
02:57 51.4 °F /  10.8 °C 50.5 °F /  10.3 °C 30.2 in /  1021.2 hPa Calm   1 mph /  1.6 km/h 97 % 0 in /  0.0 mm
03:02 51.6 °F /  10.9 °C 50.5 °F /  10.3 °C 30.2 in /  1021.6 hPa Calm   1 mph /  1.6 km/h 96 % 0 in /  0.0 mm
03:12 51.4 °F /  10.8 °C 50.4 °F /  10.2 °C 30.2 in /  1021.2 hPa Calm   1 mph /  1.6 km/h 96 % 0 in /  0.0 mm
03:17 51.3 °F /  10.7 °C 50.2 °F /  10.1 °C 30.2 in /  1021.2 hPa Calm   1 mph /  1.6 km/h 96 % 0 in /  0.0 mm
03:22 50.7 °F /  10.4 °C 49.3 °F /  9.6 °C 30.2 in /  1021.2 hPa WNW 2 mph /  3.2 km/h 2 mph /  3.2 km/h 95 % 0 in /  0.0 mm
03:27 50.5 °F /  10.3 °C 49.5 °F /  9.7 °C 30.2 in /  1021.2 hPa NW 1 mph /  1.6 km/h 2 mph /  3.2 km/h 96 % 0 in /  0.0 mm
03:32 50.9 °F /  10.5 °C 49.8 °F /  9.9 °C 30.2 in /  1021.2 hPa WNW 1 mph /  1.6 km/h 3 mph /  4.8 km/h 96 % 0 in /  0.0 mm
03:37 51.3 °F /  10.7 °C 50.4 °F /  10.2 °C 30.2 in /  1021.2 hPa WNW 1 mph /  1.6 km/h 3 mph /  4.8 km/h 97 % 0 in /  0.0 mm
03:42 51.3 °F /  10.7 °C 50.2 °F /  10.1 °C 30.2 in /  1021.2 hPa Calm   3 mph /  4.8 km/h 96 % 0 in /  0.0 mm
03:47 51.3 °F /  10.7 °C 50.2 °F /  10.1 °C 30.2 in /  1021.2 hPa WNW 1 mph /  1.6 km/h 2 mph /  3.2 km/h 96 % 0 in /  0.0 mm
03:52 51.3 °F /  10.7 °C 50.2 °F /  10.1 °C 30.2 in /  1020.9 hPa Calm   2 mph /  3.2 km/h 96 % 0 in /  0.0 mm
03:57 51.1 °F /  10.6 °C 50 °F /  10.0 °C 30.2 in /  1020.9 hPa Calm   2 mph /  3.2 km/h 96 % 0 in /  0.0 mm
04:02 51.1 °F /  10.6 °C 50 °F /  10.0 °C 30.2 in /  1020.9 hPa Calm   2 mph /  3.2 km/h 96 % 0 in /  0.0 mm
04:07 51.1 °F /  10.6 °C 50 °F /  10.0 °C 30.2 in /  1020.9 hPa Calm   1 mph /  1.6 km/h 96 % 0 in /  0.0 mm
04:12 51.1 °F /  10.6 °C 50 °F /  10.0 °C 30.2 in /  1020.9 hPa Calm     96 % 0 in /  0.0 mm
04:17 51.1 °F /  10.6 °C 50 °F /  10.0 °C 30.2 in /  1020.9 hPa Calm     96 % 0 in /  0.0 mm
04:22 50.9 °F /  10.5 °C 49.8 °F /  9.9 °C 30.2 in /  1020.9 hPa Calm     96 % 0 in /  0.0 mm
04:27 50.7 °F /  10.4 °C 49.6 °F /  9.8 °C 30.2 in /  1020.9 hPa Calm     96 % 0 in /  0.0 mm
04:32 50.5 °F /  10.3 °C 49.5 °F /  9.7 °C 30.2 in /  1020.9 hPa Calm   1 mph /  1.6 km/h 96 % 0 in /  0.0 mm
04:37 50.7 °F /  10.4 °C 49.6 °F /  9.8 °C 30.2 in /  1020.9 hPa Calm   1 mph /  1.6 km/h 96 % 0 in /  0.0 mm
04:42 50.5 °F /  10.3 °C 49.5 °F /  9.7 °C 30.2 in /  1020.9 hPa SSE 1 mph /  1.6 km/h 1 mph /  1.6 km/h 96 % 0 in /  0.0 mm
04:47 50.4 °F /  10.2 °C 49.3 °F /  9.6 °C 30.2 in /  1020.9 hPa Calm   1 mph /  1.6 km/h 96 % 0 in /  0.0 mm
04:52 50.4 °F /  10.2 °C 49.3 °F /  9.6 °C 30.2 in /  1020.9 hPa Calm   1 mph /  1.6 km/h 96 % 0.01 in /  0.3 mm
05:02 50.7 °F /  10.4 °C 49.8 °F /  9.9 °C 30.2 in /  1020.9 hPa Calm   1 mph /  1.6 km/h 97 % 0.01 in /  0.3 mm
05:07 50.5 °F /  10.3 °C 49.6 °F /  9.8 °C 30.2 in /  1020.9 hPa Calm     97 % 0.01 in /  0.3 mm
05:12 50.5 °F /  10.3 °C 49.6 °F /  9.8 °C 30.1 in /  1020.5 hPa Calm     97 % 0.01 in /  0.3 mm
05:22 50.4 °F /  10.2 °C 49.3 °F /  9.6 °C 30.1 in /  1020.5 hPa Calm     96 % 0.01 in /  0.3 mm
05:32 50.5 °F /  10.3 °C 49.6 °F /  9.8 °C 30.1 in /  1020.5 hPa Calm     97 % 0.01 in /  0.3 mm
05:42 50.4 °F /  10.2 °C 49.5 °F /  9.7 °C 30.1 in /  1020.5 hPa Calm     97 % 0.01 in /  0.3 mm
05:47 50.2 °F /  10.1 °C 49.3 °F /  9.6 °C 30.1 in /  1020.5 hPa WNW 2 mph /  3.2 km/h 2 mph /  3.2 km/h 97 % 0.01 in /  0.3 mm
05:52 50.2 °F /  10.1 °C 49.3 °F /  9.6 °C 30.1 in /  1020.5 hPa NW 2 mph /  3.2 km/h 2 mph /  3.2 km/h 97 % 0 in /  0.0 mm
05:57 50.4 °F /  10.2 °C 49.5 °F /  9.7 °C 30.1 in /  1020.5 hPa WNW 1 mph /  1.6 km/h 4 mph /  6.4 km/h 97 % 0 in /  0.0 mm
06:02 50.4 °F /  10.2 °C 49.5 °F /  9.7 °C 30.1 in /  1020.5 hPa Calm   4 mph /  6.4 km/h 97 % 0 in /  0.0 mm
06:12 50.4 °F /  10.2 °C 49.5 °F /  9.7 °C 30.1 in /  1020.5 hPa Calm   4 mph /  6.4 km/h 97 % 0 in /  0.0 mm
06:17 50.4 °F /  10.2 °C 49.5 °F /  9.7 °C 30.1 in /  1020.5 hPa Calm   3 mph /  4.8 km/h 97 % 0 in /  0.0 mm
06:22 50.4 °F /  10.2 °C 49.5 °F /  9.7 °C 30.1 in /  1020.5 hPa Calm   3 mph /  4.8 km/h 97 % 0 in /  0.0 mm
06:27 50.5 °F /  10.3 °C 49.6 °F /  9.8 °C 30.2 in /  1020.9 hPa NW 1 mph /  1.6 km/h 2 mph /  3.2 km/h 97 % 0 in /  0.0 mm
06:32 50.7 °F /  10.4 °C 49.8 °F /  9.9 °C 30.2 in /  1020.9 hPa NW 3 mph /  4.8 km/h 3 mph /  4.8 km/h 97 % 0 in /  0.0 mm
06:42 51.3 °F /  10.7 °C 50.4 °F /  10.2 °C 30.2 in /  1020.9 hPa WNW 1 mph /  1.6 km/h 7 mph /  11.3 km/h 97 % 0 in /  0.0 mm
06:52 51.4 °F /  10.8 °C 50.5 °F /  10.3 °C 30.2 in /  1020.9 hPa Calm   7 mph /  11.3 km/h 97 % 0 in /  0.0 mm
07:02 51.6 °F /  10.9 °C 50.7 °F /  10.4 °C 30.2 in /  1020.9 hPa NNW 4 mph /  6.4 km/h 4 mph /  6.4 km/h 97 % 0 in /  0.0 mm
07:12 52 °F /  11.1 °C 51.1 °F /  10.6 °C 30.2 in /  1021.2 hPa West 2 mph /  3.2 km/h 4 mph /  6.4 km/h 97 % 0 in /  0.0 mm
07:22 52.3 °F /  11.3 °C 51.4 °F /  10.8 °C 30.2 in /  1021.2 hPa NNE 5 mph /  8.0 km/h 6 mph /  9.7 km/h 97 % 0 in /  0.0 mm
07:32 52.3 °F /  11.3 °C 51.4 °F /  10.8 °C 30.2 in /  1021.2 hPa NNE 3 mph /  4.8 km/h 7 mph /  11.3 km/h 97 % 0 in /  0.0 mm
07:42 52.5 °F /  11.4 °C 51.6 °F /  10.9 °C 30.2 in /  1021.2 hPa North 3 mph /  4.8 km/h 7 mph /  11.3 km/h 97 % 0 in /  0.0 mm
07:47 52.7 °F /  11.5 °C 51.8 °F /  11.0 °C 30.2 in /  1021.2 hPa Calm   5 mph /  8.0 km/h 97 % 0 in /  0.0 mm
07:52 52.9 °F /  11.6 °C 52 °F /  11.1 °C 30.2 in /  1021.2 hPa NNW 1 mph /  1.6 km/h 5 mph /  8.0 km/h 97 % 0 in /  0.0 mm
07:57 52.9 °F /  11.6 °C 52 °F /  11.1 °C 30.2 in /  1021.2 hPa Calm   3 mph /  4.8 km/h 97 % 0 in /  0.0 mm
08:02 53.1 °F /  11.7 °C 52.2 °F /  11.2 °C 30.2 in /  1021.2 hPa North 3 mph /  4.8 km/h 3 mph /  4.8 km/h 97 % 0 in /  0.0 mm
08:12 53.2 °F /  11.8 °C 52.3 °F /  11.3 °C 30.2 in /  1021.2 hPa WNW 1 mph /  1.6 km/h 3 mph /  4.8 km/h 97 % 0 in /  0.0 mm
08:17 53.2 °F /  11.8 °C 52.3 °F /  11.3 °C 30.2 in /  1021.2 hPa WNW 3 mph /  4.8 km/h 3 mph /  4.8 km/h 97 % 0 in /  0.0 mm
08:22 53.4 °F /  11.9 °C 52.5 °F /  11.4 °C 30.2 in /  1021.2 hPa West 1 mph /  1.6 km/h 3 mph /  4.8 km/h 97 % 0 in /  0.0 mm
08:32 54 °F /  12.2 °C 53.1 °F /  11.7 °C 30.2 in /  1021.2 hPa Calm   3 mph /  4.8 km/h 97 % 0 in /  0.0 mm
08:42 54.1 °F /  12.3 °C 53.2 °F /  11.8 °C 30.2 in /  1021.2 hPa North 1 mph /  1.6 km/h 3 mph /  4.8 km/h 97 % 0 in /  0.0 mm
08:52 54.5 °F /  12.5 °C 53.6 °F /  12.0 °C 30.2 in /  1021.2 hPa NW 3 mph /  4.8 km/h 4 mph /  6.4 km/h 97 % 0 in /  0.0 mm
08:57 54.9 °F /  12.7 °C 54 °F /  12.2 °C 30.2 in /  1021.2 hPa WNW 5 mph /  8.0 km/h 6 mph /  9.7 km/h 97 % 0 in /  0.0 mm
09:02 54.9 °F /  12.7 °C 53.8 °F /  12.1 °C 30.2 in /  1021.2 hPa NW 2 mph /  3.2 km/h 6 mph /  9.7 km/h 96 % 0 in /  0.0 mm
09:12 55 °F /  12.8 °C 53.6 °F /  12.0 °C 30.2 in /  1021.6 hPa WNW 4 mph /  6.4 km/h 6 mph /  9.7 km/h 95 % 0 in /  0.0 mm
09:17 54.9 °F /  12.7 °C 53.4 °F /  11.9 °C 30.2 in /  1021.6 hPa WNW 3 mph /  4.8 km/h 8 mph /  12.9 km/h 95 % 0 in /  0.0 mm
09:27 55 °F /  12.8 °C 53.6 °F /  12.0 °C 30.2 in /  1021.6 hPa WNW 3 mph /  4.8 km/h 6 mph /  9.7 km/h 95 % 0 in /  0.0 mm
09:32 55 °F /  12.8 °C 53.6 °F /  12.0 °C 30.2 in /  1021.6 hPa NW 1 mph /  1.6 km/h 6 mph /  9.7 km/h 95 % 0 in /  0.0 mm
09:37 55.4 °F /  13.0 °C 54 °F /  12.2 °C 30.2 in /  1021.6 hPa NW 1 mph /  1.6 km/h 4 mph /  6.4 km/h 95 % 0 in /  0.0 mm
09:42 55.9 °F /  13.3 °C 54.5 °F /  12.5 °C 30.2 in /  1021.6 hPa Calm   4 mph /  6.4 km/h 95 % 0 in /  0.0 mm
09:47 56.1 °F /  13.4 °C 54.5 °F /  12.5 °C 30.2 in /  1021.6 hPa WNW 3 mph /  4.8 km/h 3 mph /  4.8 km/h 94 % 0 in /  0.0 mm
09:52 56.5 °F /  13.6 °C 54.5 °F /  12.5 °C 30.2 in /  1021.6 hPa NNW 2 mph /  3.2 km/h 3 mph /  4.8 km/h 93 % 0 in /  0.0 mm
10:02 57 °F /  13.9 °C 54.7 °F /  12.6 °C 30.2 in /  1021.6 hPa WNW 4 mph /  6.4 km/h 5 mph /  8.0 km/h 92 % 0 in /  0.0 mm
10:07 57 °F /  13.9 °C 54.5 °F /  12.5 °C 30.2 in /  1021.9 hPa WNW 3 mph /  4.8 km/h 5 mph /  8.0 km/h 91 % 0 in /  0.0 mm
10:12 57.4 °F /  14.1 °C 54.9 °F /  12.7 °C 30.2 in /  1021.9 hPa NW 3 mph /  4.8 km/h 5 mph /  8.0 km/h 91 % 0 in /  0.0 mm
10:17 57.7 °F /  14.3 °C 54.9 °F /  12.7 °C 30.2 in /  1021.9 hPa NW 4 mph /  6.4 km/h 6 mph /  9.7 km/h 90 % 0 in /  0.0 mm
10:22 58.5 °F /  14.7 °C 55.2 °F /  12.9 °C 30.2 in /  1021.6 hPa NNW 2 mph /  3.2 km/h 6 mph /  9.7 km/h 89 % 0 in /  0.0 mm
10:32 59.2 °F /  15.1 °C 54.7 °F /  12.6 °C 30.2 in /  1021.9 hPa NNE 6 mph /  9.7 km/h 8 mph /  12.9 km/h 85 % 0 in /  0.0 mm
10:42 58.6 °F /  14.8 °C 53.8 °F /  12.1 °C 30.2 in /  1021.9 hPa WNW 5 mph /  8.0 km/h 9 mph /  14.5 km/h 84 % 0 in /  0.0 mm
10:47 58.3 °F /  14.6 °C 53.8 °F /  12.1 °C 30.2 in /  1021.9 hPa NW 2 mph /  3.2 km/h 8 mph /  12.9 km/h 85 % 0 in /  0.0 mm
10:52 58.8 °F /  14.9 °C 54 °F /  12.2 °C 30.2 in /  1021.9 hPa Calm   8 mph /  12.9 km/h 84 % 0 in /  0.0 mm
10:57 59.2 °F /  15.1 °C 54.3 °F /  12.4 °C 30.2 in /  1021.9 hPa North 2 mph /  3.2 km/h 7 mph /  11.3 km/h 84 % 0 in /  0.0 mm
11:02 59.4 °F /  15.2 °C 54.1 °F /  12.3 °C 30.2 in /  1021.9 hPa NW 1 mph /  1.6 km/h 7 mph /  11.3 km/h 83 % 0 in /  0.0 mm
11:12 59.4 °F /  15.2 °C 54.1 °F /  12.3 °C 30.2 in /  1022.2 hPa WNW 1 mph /  1.6 km/h 6 mph /  9.7 km/h 83 % 0 in /  0.0 mm
11:17 59.7 °F /  15.4 °C 54 °F /  12.2 °C 30.2 in /  1022.2 hPa NNW 2 mph /  3.2 km/h 6 mph /  9.7 km/h 81 % 0 in /  0.0 mm
11:22 59.5 °F /  15.3 °C 54 °F /  12.2 °C 30.2 in /  1021.9 hPa NNE 2 mph /  3.2 km/h 6 mph /  9.7 km/h 82 % 0 in /  0.0 mm
11:32 60.1 °F /  15.6 °C 54.5 °F /  12.5 °C 30.2 in /  1021.9 hPa Calm   6 mph /  9.7 km/h 82 % 0 in /  0.0 mm
11:37 61 °F /  16.1 °C 54.5 °F /  12.5 °C 30.2 in /  1021.9 hPa NNW 2 mph /  3.2 km/h 4 mph /  6.4 km/h 79 % 0 in /  0.0 mm
11:42 61.5 °F /  16.4 °C 54.7 °F /  12.6 °C 30.2 in /  1021.9 hPa NE 2 mph /  3.2 km/h 4 mph /  6.4 km/h 78 % 0 in /  0.0 mm
11:47 61.2 °F /  16.2 °C 54.3 °F /  12.4 °C 30.2 in /  1022.2 hPa NE 4 mph /  6.4 km/h 6 mph /  9.7 km/h 78 % 0 in /  0.0 mm
11:52 61 °F /  16.1 °C 54.7 °F /  12.6 °C 30.2 in /  1022.2 hPa North 2 mph /  3.2 km/h 6 mph /  9.7 km/h 80 % 0 in /  0.0 mm
12:02 61.5 °F /  16.4 °C 54.7 °F /  12.6 °C 30.2 in /  1022.2 hPa NNE 2 mph /  3.2 km/h 8 mph /  12.9 km/h 78 % 0 in /  0.0 mm
12:12 61.3 °F /  16.3 °C 54.5 °F /  12.5 °C 30.2 in /  1022.2 hPa NW 2 mph /  3.2 km/h 7 mph /  11.3 km/h 78 % 0 in /  0.0 mm
12:17 61.3 °F /  16.3 °C 54.5 °F /  12.5 °C 30.2 in /  1022.2 hPa West 1 mph /  1.6 km/h 5 mph /  8.0 km/h 78 % 0 in /  0.0 mm
12:22 61 °F /  16.1 °C 54.5 °F /  12.5 °C 30.2 in /  1022.2 hPa West 1 mph /  1.6 km/h 6 mph /  9.7 km/h 79 % 0 in /  0.0 mm
12:32 60.3 °F /  15.7 °C 54.3 °F /  12.4 °C 30.2 in /  1022.2 hPa NE 2 mph /  3.2 km/h 7 mph /  11.3 km/h 81 % 0 in /  0.0 mm
12:42 59.5 °F /  15.3 °C 54 °F /  12.2 °C 30.2 in /  1022.2 hPa NNW 1 mph /  1.6 km/h 7 mph /  11.3 km/h 82 % 0 in /  0.0 mm
12:52 61.2 °F /  16.2 °C 54.9 °F /  12.7 °C 30.2 in /  1022.2 hPa ENE 1 mph /  1.6 km/h 5 mph /  8.0 km/h 80 % 0 in /  0.0 mm
12:57 61.9 °F /  16.6 °C 54.9 °F /  12.7 °C 30.2 in /  1022.2 hPa NNW 4 mph /  6.4 km/h 8 mph /  12.9 km/h 78 % 0 in /  0.0 mm
13:02 61.9 °F /  16.6 °C 55.2 °F /  12.9 °C 30.2 in /  1022.2 hPa Calm   8 mph /  12.9 km/h 79 % 0 in /  0.0 mm
13:12 61.5 °F /  16.4 °C 54 °F /  12.2 °C 30.2 in /  1022.2 hPa NNW 2 mph /  3.2 km/h 6 mph /  9.7 km/h 76 % 0 in /  0.0 mm
13:17 62.4 °F /  16.9 °C 54 °F /  12.2 °C 30.2 in /  1022.2 hPa NNW 4 mph /  6.4 km/h 6 mph /  9.7 km/h 74 % 0 in /  0.0 mm
13:27 62.4 °F /  16.9 °C 54.3 °F /  12.4 °C 30.2 in /  1022.2 hPa NNW 1 mph /  1.6 km/h 8 mph /  12.9 km/h 75 % 0 in /  0.0 mm
13:32 63.1 °F /  17.3 °C 55.4 °F /  13.0 °C 30.2 in /  1022.2 hPa NW 7 mph /  11.3 km/h 8 mph /  12.9 km/h 76 % 0 in /  0.0 mm
13:42 63.1 °F /  17.3 °C 54.3 °F /  12.4 °C 30.2 in /  1022.2 hPa NW 5 mph /  8.0 km/h 8 mph /  12.9 km/h 73 % 0 in /  0.0 mm
13:47 63.7 °F /  17.6 °C 54.9 °F /  12.7 °C 30.2 in /  1022.2 hPa NNW 3 mph /  4.8 km/h 8 mph /  12.9 km/h 73 % 0 in /  0.0 mm
13:52 63.9 °F /  17.7 °C 55 °F /  12.8 °C 30.2 in /  1022.2 hPa NE 2 mph /  3.2 km/h 7 mph /  11.3 km/h 73 % 0 in /  0.0 mm
13:57 63.9 °F /  17.7 °C 55.4 °F /  13.0 °C 30.2 in /  1022.2 hPa North 4 mph /  6.4 km/h 8 mph /  12.9 km/h 74 % 0 in /  0.0 mm
14:02 64.2 °F /  17.9 °C 54.7 °F /  12.6 °C 30.2 in /  1022.2 hPa WNW 3 mph /  4.8 km/h 8 mph /  12.9 km/h 71 % 0 in /  0.0 mm
14:12 64.2 °F /  17.9 °C 54.7 °F /  12.6 °C 30.2 in /  1022.2 hPa NW 1 mph /  1.6 km/h 10 mph /  16.1 km/h 71 % 0 in /  0.0 mm
14:17 64.8 °F /  18.2 °C 54.7 °F /  12.6 °C 30.2 in /  1022.2 hPa North 3 mph /  4.8 km/h 10 mph /  16.1 km/h 70 % 0 in /  0.0 mm
14:22 64 °F /  17.8 °C 53.6 °F /  12.0 °C 30.2 in /  1022.2 hPa NNE 2 mph /  3.2 km/h 11 mph /  17.7 km/h 69 % 0 in /  0.0 mm
14:27 63.5 °F /  17.5 °C 53.6 °F /  12.0 °C 30.2 in /  1022.2 hPa NNW 8 mph /  12.9 km/h 11 mph /  17.7 km/h 70 % 0 in /  0.0 mm
14:32 63.3 °F /  17.4 °C 54.1 °F /  12.3 °C 30.2 in /  1022.2 hPa WNW 7 mph /  11.3 km/h 11 mph /  17.7 km/h 72 % 0 in /  0.0 mm
14:42 64 °F /  17.8 °C 54.5 °F /  12.5 °C 30.2 in /  1022.2 hPa WNW 6 mph /  9.7 km/h 11 mph /  17.7 km/h 71 % 0 in /  0.0 mm
14:47 64.2 °F /  17.9 °C 54.7 °F /  12.6 °C 30.2 in /  1021.9 hPa West 5 mph /  8.0 km/h 11 mph /  17.7 km/h 71 % 0 in /  0.0 mm
14:52 64.6 °F /  18.1 °C 53.8 °F /  12.1 °C 30.2 in /  1022.2 hPa NNW 3 mph /  4.8 km/h 11 mph /  17.7 km/h 68 % 0 in /  0.0 mm
14:57 64.8 °F /  18.2 °C 54.7 °F /  12.6 °C 30.2 in /  1021.9 hPa NNW 3 mph /  4.8 km/h 11 mph /  17.7 km/h 70 % 0 in /  0.0 mm
15:02 64.8 °F /  18.2 °C 54.3 °F /  12.4 °C 30.2 in /  1022.2 hPa NNE 2 mph /  3.2 km/h 8 mph /  12.9 km/h 69 % 0 in /  0.0 mm
15:12 64.9 °F /  18.3 °C 54.9 °F /  12.7 °C 30.2 in /  1022.2 hPa NW 3 mph /  4.8 km/h 10 mph /  16.1 km/h 70 % 0 in /  0.0 mm
15:17 65.5 °F /  18.6 °C 55 °F /  12.8 °C 30.2 in /  1022.2 hPa WNW 2 mph /  3.2 km/h 10 mph /  16.1 km/h 69 % 0 in /  0.0 mm
15:22 65.5 °F /  18.6 °C 53.8 °F /  12.1 °C 30.2 in /  1022.2 hPa West 8 mph /  12.9 km/h 8 mph /  12.9 km/h 66 % 0 in /  0.0 mm
15:27 65.1 °F /  18.4 °C 54.3 °F /  12.4 °C 30.2 in /  1022.2 hPa NNE 7 mph /  11.3 km/h 9 mph /  14.5 km/h 68 % 0 in /  0.0 mm
15:32 64.8 °F /  18.2 °C 54 °F /  12.2 °C 30.2 in /  1022.2 hPa North 2 mph /  3.2 km/h 9 mph /  14.5 km/h 68 % 0 in /  0.0 mm
15:42 64.9 °F /  18.3 °C 53.2 °F /  11.8 °C 30.2 in /  1022.2 hPa North 3 mph /  4.8 km/h 8 mph /  12.9 km/h 66 % 0 in /  0.0 mm
15:52 66 °F /  18.9 °C 54 °F /  12.2 °C 30.2 in /  1021.9 hPa WSW 1 mph /  1.6 km/h 8 mph /  12.9 km/h 65 % 0 in /  0.0 mm
15:57 65.8 °F /  18.8 °C 52.9 °F /  11.6 °C 30.2 in /  1021.9 hPa SW 1 mph /  1.6 km/h 6 mph /  9.7 km/h 63 % 0 in /  0.0 mm
16:02 66.4 °F /  19.1 °C 53.8 °F /  12.1 °C 30.2 in /  1021.9 hPa NNW 1 mph /  1.6 km/h 6 mph /  9.7 km/h 64 % 0 in /  0.0 mm
16:12 66.7 °F /  19.3 °C 53.8 °F /  12.1 °C 30.2 in /  1021.6 hPa NNE 2 mph /  3.2 km/h 5 mph /  8.0 km/h 63 % 0 in /  0.0 mm
16:17 67.3 °F /  19.6 °C 55 °F /  12.8 °C 30.2 in /  1021.6 hPa WNW 3 mph /  4.8 km/h 8 mph /  12.9 km/h 65 % 0 in /  0.0 mm
16:22 66.9 °F /  19.4 °C 53.4 °F /  11.9 °C 30.2 in /  1021.6 hPa West 1 mph /  1.6 km/h 8 mph /  12.9 km/h 62 % 0 in /  0.0 mm
16:27 67.3 °F /  19.6 °C 53.8 °F /  12.1 °C 30.2 in /  1021.6 hPa WNW 1 mph /  1.6 km/h 7 mph /  11.3 km/h 62 % 0 in /  0.0 mm
16:32 67.1 °F /  19.5 °C 52.7 °F /  11.5 °C 30.2 in /  1021.6 hPa NW 4 mph /  6.4 km/h 7 mph /  11.3 km/h 60 % 0 in /  0.0 mm
16:42 67.1 °F /  19.5 °C 54.1 °F /  12.3 °C 30.2 in /  1021.6 hPa WNW 3 mph /  4.8 km/h 8 mph /  12.9 km/h 63 % 0 in /  0.0 mm
16:47 67.5 °F /  19.7 °C 53.1 °F /  11.7 °C 30.2 in /  1021.6 hPa West 2 mph /  3.2 km/h 8 mph /  12.9 km/h 60 % 0 in /  0.0 mm
16:52 67.6 °F /  19.8 °C 53.8 °F /  12.1 °C 30.2 in /  1021.6 hPa NNE 2 mph /  3.2 km/h 6 mph /  9.7 km/h 61 % 0 in /  0.0 mm
16:57 67.6 °F /  19.8 °C 53.2 °F /  11.8 °C 30.2 in /  1021.6 hPa NW 2 mph /  3.2 km/h 6 mph /  9.7 km/h 60 % 0 in /  0.0 mm
17:02 66.9 °F /  19.4 °C 53.1 °F /  11.7 °C 30.2 in /  1021.6 hPa WNW 2 mph /  3.2 km/h 6 mph /  9.7 km/h 61 % 0 in /  0.0 mm
17:12 67.5 °F /  19.7 °C 53.1 °F /  11.7 °C 30.2 in /  1021.6 hPa West 2 mph /  3.2 km/h 5 mph /  8.0 km/h 60 % 0 in /  0.0 mm
17:17 67.1 °F /  19.5 °C 53.2 °F /  11.8 °C 30.2 in /  1021.6 hPa Calm   3 mph /  4.8 km/h 61 % 0 in /  0.0 mm
17:22 67.1 °F /  19.5 °C 53.2 °F /  11.8 °C 30.2 in /  1021.2 hPa Calm   3 mph /  4.8 km/h 61 % 0 in /  0.0 mm
17:27 67.6 °F /  19.8 °C 54.1 °F /  12.3 °C 30.2 in /  1021.2 hPa Calm   3 mph /  4.8 km/h 62 % 0 in /  0.0 mm
17:32 67.8 °F /  19.9 °C 54 °F /  12.2 °C 30.2 in /  1021.2 hPa Calm   1 mph /  1.6 km/h 61 % 0 in /  0.0 mm
17:42 67.3 °F /  19.6 °C 53.4 °F /  11.9 °C 30.2 in /  1021.6 hPa West 2 mph /  3.2 km/h 5 mph /  8.0 km/h 61 % 0 in /  0.0 mm
17:52 67.5 °F /  19.7 °C 54.9 °F /  12.7 °C 30.2 in /  1021.2 hPa NNE 1 mph /  1.6 km/h 6 mph /  9.7 km/h 64 % 0 in /  0.0 mm
18:02 66.9 °F /  19.4 °C 54 °F /  12.2 °C 30.2 in /  1021.2 hPa NE 2 mph /  3.2 km/h 6 mph /  9.7 km/h 63 % 0 in /  0.0 mm
18:12 67.1 °F /  19.5 °C 53.2 °F /  11.8 °C 30.2 in /  1021.6 hPa East 1 mph /  1.6 km/h 5 mph /  8.0 km/h 61 % 0 in /  0.0 mm
18:17 68.2 °F /  20.1 °C 53.8 °F /  12.1 °C 30.2 in /  1021.6 hPa NNW 4 mph /  6.4 km/h 4 mph /  6.4 km/h 60 % 0 in /  0.0 mm
18:22 68.7 °F /  20.4 °C 53.4 °F /  11.9 °C 30.2 in /  1021.6 hPa SW 5 mph /  8.0 km/h 5 mph /  8.0 km/h 58 % 0 in /  0.0 mm
18:32 68.9 °F /  20.5 °C 53.6 °F /  12.0 °C 30.2 in /  1021.6 hPa NW 4 mph /  6.4 km/h 11 mph /  17.7 km/h 58 % 0 in /  0.0 mm
18:42 68.5 °F /  20.3 °C 53.2 °F /  11.8 °C 30.2 in /  1021.6 hPa WNW 2 mph /  3.2 km/h 8 mph /  12.9 km/h 58 % 0 in /  0.0 mm
18:47 67.8 °F /  19.9 °C 53.4 °F /  11.9 °C 30.2 in /  1021.6 hPa WNW 4 mph /  6.4 km/h 13 mph /  20.9 km/h 60 % 0 in /  0.0 mm
18:52 67.3 °F /  19.6 °C 53.8 °F /  12.1 °C 30.2 in /  1021.6 hPa WNW 8 mph /  12.9 km/h 13 mph /  20.9 km/h 62 % 0 in /  0.0 mm
18:57 66.7 °F /  19.3 °C 54.7 °F /  12.6 °C 30.2 in /  1021.6 hPa NW 6 mph /  9.7 km/h 13 mph /  20.9 km/h 65 % 0 in /  0.0 mm
19:02 66.4 °F /  19.1 °C 54.7 °F /  12.6 °C 30.2 in /  1021.6 hPa WNW 4 mph /  6.4 km/h 10 mph /  16.1 km/h 66 % 0 in /  0.0 mm
19:12 66 °F /  18.9 °C 54.7 °F /  12.6 °C 30.2 in /  1021.9 hPa NW 3 mph /  4.8 km/h 8 mph /  12.9 km/h 67 % 0 in /  0.0 mm
19:17 65.8 °F /  18.8 °C 54.5 °F /  12.5 °C 30.2 in /  1021.9 hPa WNW 5 mph /  8.0 km/h 7 mph /  11.3 km/h 67 % 0 in /  0.0 mm
19:22 65.8 °F /  18.8 °C 55 °F /  12.8 °C 30.2 in /  1021.9 hPa West 1 mph /  1.6 km/h 7 mph /  11.3 km/h 68 % 0 in /  0.0 mm
19:32 65.8 °F /  18.8 °C 55.4 °F /  13.0 °C 30.2 in /  1021.9 hPa WNW 2 mph /  3.2 km/h 5 mph /  8.0 km/h 69 % 0 in /  0.0 mm
19:42 65.7 °F /  18.7 °C 54.9 °F /  12.7 °C 30.2 in /  1021.6 hPa NW 2 mph /  3.2 km/h 7 mph /  11.3 km/h 68 % 0 in /  0.0 mm
19:52 66.6 °F /  19.2 °C 54.9 °F /  12.7 °C 30.2 in /  1021.6 hPa West 4 mph /  6.4 km/h 9 mph /  14.5 km/h 66 % 0 in /  0.0 mm
19:57 66.7 °F /  19.3 °C 55.4 °F /  13.0 °C 30.2 in /  1021.6 hPa WNW 2 mph /  3.2 km/h 10 mph /  16.1 km/h 67 % 0 in /  0.0 mm
20:02 66.4 °F /  19.1 °C 55 °F /  12.8 °C 30.2 in /  1021.9 hPa NNW 4 mph /  6.4 km/h 10 mph /  16.1 km/h 67 % 0 in /  0.0 mm
20:07 65.8 °F /  18.8 °C 55 °F /  12.8 °C 30.2 in /  1021.6 hPa WNW 8 mph /  12.9 km/h 10 mph /  16.1 km/h 68 % 0 in /  0.0 mm
20:12 65.3 °F /  18.5 °C 55.2 °F /  12.9 °C 30.2 in /  1021.6 hPa West 4 mph /  6.4 km/h 13 mph /  20.9 km/h 70 % 0 in /  0.0 mm
20:17 64.9 °F /  18.3 °C 55.4 °F /  13.0 °C 30.2 in /  1021.9 hPa WNW 9 mph /  14.5 km/h 13 mph /  20.9 km/h 71 % 0 in /  0.0 mm
20:22 64.8 °F /  18.2 °C 55.6 °F /  13.1 °C 30.2 in /  1021.9 hPa West 4 mph /  6.4 km/h 13 mph /  20.9 km/h 72 % 0 in /  0.0 mm
20:32 64.2 °F /  17.9 °C 55 °F /  12.8 °C 30.2 in /  1021.9 hPa NW 1 mph /  1.6 km/h 11 mph /  17.7 km/h 72 % 0 in /  0.0 mm
20:42 64 °F /  17.8 °C 55.2 °F /  12.9 °C 30.2 in /  1021.9 hPa West 1 mph /  1.6 km/h 10 mph /  16.1 km/h 73 % 0 in /  0.0 mm
20:52 63.7 °F /  17.6 °C 55.2 °F /  12.9 °C 30.2 in /  1022.2 hPa West 5 mph /  8.0 km/h 11 mph /  17.7 km/h 74 % 0 in /  0.0 mm
21:02 63.1 °F /  17.3 °C 55.4 °F /  13.0 °C 30.2 in /  1022.2 hPa NW 2 mph /  3.2 km/h 8 mph /  12.9 km/h 76 % 0 in /  0.0 mm
21:07 63 °F /  17.2 °C 55.2 °F /  12.9 °C 30.2 in /  1022.2 hPa WSW 1 mph /  1.6 km/h 8 mph /  12.9 km/h 76 % 0 in /  0.0 mm
21:17 62.4 °F /  16.9 °C 55 °F /  12.8 °C 30.2 in /  1022.2 hPa Calm   8 mph /  12.9 km/h 77 % 0 in /  0.0 mm
21:22 62.2 °F /  16.8 °C 54.9 °F /  12.7 °C 30.2 in /  1022.2 hPa NW 3 mph /  4.8 km/h 6 mph /  9.7 km/h 77 % 0 in /  0.0 mm
21:32 61.5 °F /  16.4 °C 54.9 °F /  12.7 °C 30.2 in /  1022.2 hPa West 4 mph /  6.4 km/h 6 mph /  9.7 km/h 79 % 0 in /  0.0 mm
21:42 61.2 °F /  16.2 °C 54.7 °F /  12.6 °C 30.2 in /  1022.2 hPa WNW 1 mph /  1.6 km/h 5 mph /  8.0 km/h 79 % 0 in /  0.0 mm
21:47 61.2 °F /  16.2 °C 54.7 °F /  12.6 °C 30.2 in /  1022.2 hPa Calm   5 mph /  8.0 km/h 79 % 0 in /  0.0 mm
21:52 61 °F /  16.1 °C 54.5 °F /  12.5 °C 30.2 in /  1022.2 hPa WNW 1 mph /  1.6 km/h 4 mph /  6.4 km/h 79 % 0 in /  0.0 mm
21:57 60.6 °F /  15.9 °C 54.1 °F /  12.3 °C 30.2 in /  1022.6 hPa West 2 mph /  3.2 km/h 4 mph /  6.4 km/h 79 % 0 in /  0.0 mm
22:02 60.3 °F /  15.7 °C 53.8 °F /  12.1 °C 30.2 in /  1022.6 hPa WNW 4 mph /  6.4 km/h 6 mph /  9.7 km/h 79 % 0 in /  0.0 mm
22:07 60.3 °F /  15.7 °C 53.8 °F /  12.1 °C 30.2 in /  1022.6 hPa WNW 3 mph /  4.8 km/h 7 mph /  11.3 km/h 79 % 0 in /  0.0 mm
22:17 60.3 °F /  15.7 °C 53.4 °F /  11.9 °C 30.2 in /  1022.9 hPa WNW 3 mph /  4.8 km/h 8 mph /  12.9 km/h 78 % 0 in /  0.0 mm
22:22 60.3 °F /  15.7 °C 53.8 °F /  12.1 °C 30.2 in /  1022.9 hPa West 2 mph /  3.2 km/h 8 mph /  12.9 km/h 79 % 0 in /  0.0 mm
22:32 59.7 °F /  15.4 °C 53.2 °F /  11.8 °C 30.2 in /  1022.9 hPa WNW 2 mph /  3.2 km/h 6 mph /  9.7 km/h 79 % 0 in /  0.0 mm
22:42 59.5 °F /  15.3 °C 53.4 °F /  11.9 °C 30.2 in /  1022.9 hPa WNW 1 mph /  1.6 km/h 5 mph /  8.0 km/h 80 % 0 in /  0.0 mm
22:52 59.2 °F /  15.1 °C 53.4 °F /  11.9 °C 30.2 in /  1022.9 hPa Calm   5 mph /  8.0 km/h 81 % 0 in /  0.0 mm
23:02 58.6 °F /  14.8 °C 53.2 °F /  11.8 °C 30.2 in /  1022.9 hPa West 1 mph /  1.6 km/h 2 mph /  3.2 km/h 82 % 0 in /  0.0 mm
23:12 58.6 °F /  14.8 °C 53.2 °F /  11.8 °C 30.2 in /  1022.9 hPa West 1 mph /  1.6 km/h 2 mph /  3.2 km/h 82 % 0 in /  0.0 mm
23:17 58.6 °F /  14.8 °C 53.2 °F /  11.8 °C 30.2 in /  1022.9 hPa West 1 mph /  1.6 km/h 2 mph /  3.2 km/h 82 % 0 in /  0.0 mm
23:22 58.6 °F /  14.8 °C 53.2 °F /  11.8 °C 30.2 in /  1022.9 hPa Calm   2 mph /  3.2 km/h 82 % 0 in /  0.0 mm
23:32 58.3 °F /  14.6 °C 53.1 °F /  11.7 °C 30.2 in /  1022.9 hPa Calm   1 mph /  1.6 km/h 83 % 0 in /  0.0 mm
23:37 57.9 °F /  14.4 °C 53.1 °F /  11.7 °C 30.2 in /  1022.9 hPa Calm   1 mph /  1.6 km/h 84 % 0 in /  0.0 mm
23:42 57.7 °F /  14.3 °C 52.9 °F /  11.6 °C 30.2 in /  1022.9 hPa Calm   1 mph /  1.6 km/h 84 % 0 in /  0.0 mm
23:47 57.4 °F /  14.1 °C 52.5 °F /  11.4 °C 30.2 in /  1022.9 hPa Calm   1 mph /  1.6 km/h 84 % 0 in /  0.0 mm
23:52 57 °F /  13.9 °C 52.5 °F /  11.4 °C 30.2 in /  1022.9 hPa Calm     85 % 0 in /  0.0 mm
Meteo18
Compliments of Weather Underground - 4 mb

Script developed by  Jim McMurry - jmcmurry@mwt.net Adapted for the template by  Wim van der Kuil - Leuven-Template.eu

You find our weather info also at:

European Weather Network

Weather Underground

Equipment we use:

Weather-station
Davis Vue

Weather-program
Meteohub

Weather-server
Raspberry PI 2 B+

Provider
1 and 1

Davis Vue

Meteohub

Raspberry PI 2 B+

1 and 1